Time;durP1;ratioP1;P1;durP2;ratioP2;P2;SDS_P1;SDS_P2;PMS_P1;PMS_P2;Temp;Humidity;BMP_temperature;BMP_pressure;BME280_temperature;BME280_humidity;BME280_pressure;Samples;Min_cycle;Max_cycle;Signal;HPM_P1;HPM_P2
2022/04/18 00:02:09;;;;;;;1.40;1.30;;;10.00;61.90;;;;;;5067308;28;20229;-45
2022/04/18 00:04:36;;;;;;;1.33;1.23;;;9.90;63.00;;;;;;5063116;28;20225;-43
2022/04/18 00:07:04;;;;;;;1.00;1.00;;;9.90;63.10;;;;;;5059630;28;20197;-45
2022/04/18 00:09:33;;;;;;;1.50;1.37;;;9.90;63.20;;;;;;5064657;28;20190;-49
2022/04/18 00:12:00;;;;;;;2.17;1.50;;;9.80;63.20;;;;;;5066612;28;20200;-46
2022/04/18 00:14:28;;;;;;;1.23;1.10;;;9.80;63.30;;;;;;5062016;28;20208;-39
2022/04/18 00:16:56;;;;;;;1.50;1.20;;;9.80;63.40;;;;;;5069181;28;20261;-46
2022/04/18 00:19:24;;;;;;;1.53;1.20;;;9.80;63.40;;;;;;5066807;28;20301;-45
2022/04/18 00:21:51;;;;;;;1.90;1.70;;;9.80;63.30;;;;;;5063819;28;20209;-44
2022/04/18 00:24:20;;;;;;;0.90;0.90;;;9.80;63.40;;;;;;5059389;28;20285;-40
2022/04/18 00:26:48;;;;;;;1.10;1.10;;;9.80;63.30;;;;;;5069344;28;20631;-45
2022/04/18 00:29:15;;;;;;;1.20;1.10;;;9.80;63.40;;;;;;5063973;28;20201;-47
2022/04/18 00:31:44;;;;;;;1.27;1.20;;;9.70;63.40;;;;;;5063297;28;20211;-46
2022/04/18 00:34:11;;;;;;;1.57;1.40;;;9.70;63.60;;;;;;5055598;28;20575;-48
2022/04/18 00:36:39;;;;;;;1.70;1.57;;;9.60;63.70;;;;;;5061836;28;20206;-46
2022/04/18 00:39:06;;;;;;;1.60;1.40;;;9.60;63.90;;;;;;5056795;28;20735;-39
2022/04/18 00:41:33;;;;;;;1.60;1.50;;;9.70;64.00;;;;;;5061784;28;20599;-39
2022/04/18 00:44:02;;;;;;;2.00;1.80;;;9.70;64.00;;;;;;5062620;28;20618;-39
2022/04/18 00:46:29;;;;;;;3.00;1.70;;;9.70;64.20;;;;;;5072665;28;20281;-40
2022/04/18 00:48:57;;;;;;;2.43;1.70;;;9.70;64.20;;;;;;5071533;28;20205;-40
2022/04/18 00:51:26;;;;;;;2.00;1.47;;;9.60;64.10;;;;;;5070159;28;20678;-40
2022/04/18 00:53:55;;;;;;;1.87;1.40;;;9.50;64.10;;;;;;5072567;28;20209;-39
2022/04/18 00:56:22;;;;;;;1.00;1.00;;;9.50;64.40;;;;;;5071759;28;20607;-38
2022/04/18 00:58:51;;;;;;;1.63;1.40;;;9.40;64.40;;;;;;5064728;28;20210;-38
2022/04/18 01:01:19;;;;;;;2.63;1.13;;;9.40;64.60;;;;;;5069384;28;20262;-38
2022/04/18 01:03:51;;;;;;;1.80;1.20;;;9.40;64.60;;;;;;5062915;28;20258;-39
2022/04/18 01:06:20;;;;;;;1.10;1.00;;;9.50;64.60;;;;;;5062591;28;20220;-40
2022/04/18 01:08:48;;;;;;;1.83;1.27;;;9.50;64.60;;;;;;5072240;28;20231;-42
2022/04/18 01:11:16;;;;;;;2.10;1.20;;;9.50;64.70;;;;;;5062510;28;20197;-43
2022/04/18 01:14:02;;;;;;;1.30;1.20;;;9.50;64.80;;;;;;5065420;28;20214;-42
2022/04/18 01:16:48;;;;;;;1.27;1.17;;;9.50;64.70;;;;;;5070227;28;20803;-40
2022/04/18 01:19:34;;;;;;;1.57;1.10;;;9.50;64.70;;;;;;5058445;28;20208;-42
2022/04/18 01:22:03;;;;;;;1.23;1.13;;;9.50;64.80;;;;;;5064676;28;20207;-40
2022/04/18 01:30:32;;;;;;;1.07;1.00;;;9.50;65.50;;;;;;5059406;28;20544;-42
2022/04/18 01:32:59;;;;;;;1.30;1.00;;;9.50;65.50;;;;;;5067053;28;20212;-41
2022/04/18 01:35:27;;;;;;;0.80;0.80;;;9.50;65.50;;;;;;5071158;28;20221;-42
2022/04/18 01:37:55;;;;;;;0.93;0.83;;;9.50;65.70;;;;;;5065200;28;20707;-43
2022/04/18 01:40:23;;;;;;;0.93;0.87;;;9.50;65.70;;;;;;5058189;28;20684;-41
2022/04/18 01:42:50;;;;;;;1.13;0.87;;;9.50;65.70;;;;;;5068203;28;20687;-39
2022/04/18 01:45:17;;;;;;;0.83;0.83;;;9.50;65.70;;;;;;5071803;28;20612;-43
2022/04/18 01:47:50;;;;;;;1.13;1.03;;;9.50;65.70;;;;;;5070094;28;20566;-40
2022/04/18 01:50:19;;;;;;;1.17;1.00;;;9.50;65.80;;;;;;5071078;28;20241;-40
2022/04/18 01:52:46;;;;;;;1.43;1.30;;;9.60;65.80;;;;;;5070431;28;20245;-44
2022/04/18 01:55:14;;;;;;;1.87;1.37;;;9.50;65.80;;;;;;5070049;28;20246;-43
2022/04/18 01:57:44;;;;;;;1.33;1.00;;;9.60;65.90;;;;;;5069805;28;20215;-41
2022/04/18 02:00:12;;;;;;;1.43;1.10;;;9.50;65.80;;;;;;5093559;28;20208;-42
2022/04/18 02:02:43;;;;;;;1.73;1.20;;;9.50;65.90;;;;;;5065291;28;20697;-43
2022/04/18 02:05:10;;;;;;;0.80;0.80;;;9.50;66.00;;;;;;5093405;28;20235;-42
2022/04/18 02:07:39;;;;;;;0.70;0.70;;;9.50;66.00;;;;;;5065877;28;20289;-46
2022/04/18 02:10:10;;;;;;;1.00;1.00;;;9.40;66.00;;;;;;5095155;28;20233;-40
2022/04/18 02:12:38;;;;;;;1.37;1.00;;;9.40;66.00;;;;;;5062977;28;20223;-42
2022/04/18 02:15:08;;;;;;;1.87;1.00;;;9.40;66.00;;;;;;5095736;28;20217;-44
2022/04/18 02:17:46;;;;;;;0.93;0.93;;;9.40;66.10;;;;;;5069513;28;20713;-42
2022/04/18 02:20:13;;;;;;;0.80;0.80;;;9.50;66.10;;;;;;5066652;28;20277;-41
2022/04/18 02:22:40;;;;;;;1.10;1.00;;;9.40;66.10;;;;;;5061720;28;20714;-43
2022/04/18 02:25:09;;;;;;;1.03;1.03;;;9.40;66.10;;;;;;5058824;28;20284;-45
2022/04/18 02:27:36;;;;;;;1.07;0.97;;;9.40;66.20;;;;;;5070669;28;20202;-41
2022/04/18 02:30:09;;;;;;;1.03;0.93;;;9.40;66.20;;;;;;5064744;28;20205;-42
2022/04/18 02:32:49;;;;;;;0.87;0.77;;;9.30;66.20;;;;;;5057482;28;20213;-40
2022/04/18 02:35:18;;;;;;;0.93;0.93;;;9.30;66.30;;;;;;5061117;28;20325;-40
2022/04/18 02:37:47;;;;;;;1.00;1.00;;;9.30;66.30;;;;;;5066131;28;20213;-42
2022/04/18 02:40:18;;;;;;;1.13;1.07;;;9.30;66.50;;;;;;5060675;28;20571;-42
2022/04/18 02:42:46;;;;;;;2.20;1.13;;;9.30;66.50;;;;;;5084014;28;20262;-44
2022/04/18 02:45:18;;;;;;;3.10;1.50;;;9.30;66.60;;;;;;5070327;28;20199;-40
2022/04/18 02:48:12;;;;;;;0.90;0.90;;;9.30;66.60;;;;;;5051241;28;20319;-41
2022/04/18 02:50:43;;;;;;;1.80;1.00;;;9.30;66.40;;;;;;5069502;28;20293;-43
2022/04/18 02:53:11;;;;;;;1.70;1.10;;;9.30;66.40;;;;;;5067582;28;20325;-39
2022/04/18 02:55:50;;;;;;;1.07;0.97;;;9.30;66.40;;;;;;5065287;28;20693;-43
2022/04/18 02:58:17;;;;;;;0.80;0.80;;;9.20;66.30;;;;;;5067795;28;20219;-43
2022/04/18 03:00:47;;;;;;;0.80;0.80;;;9.20;66.40;;;;;;5070105;28;20576;-43
2022/04/18 03:03:14;;;;;;;1.57;0.90;;;9.20;66.50;;;;;;5063017;28;20201;-43
2022/04/18 03:05:43;;;;;;;0.80;0.80;;;9.20;66.60;;;;;;5068425;28;20591;-45
2022/04/18 03:08:11;;;;;;;1.00;0.90;;;9.20;66.60;;;;;;5067289;28;20292;-44
2022/04/18 03:13:28;;;;;;;3.30;0.97;;;9.30;66.60;;;;;;5057830;28;20195;-40
2022/04/18 03:15:57;;;;;;;0.80;0.80;;;9.20;66.60;;;;;;5065021;28;20220;-39
2022/04/18 03:18:26;;;;;;;1.10;0.93;;;9.20;66.60;;;;;;5068818;28;20227;-44
2022/04/18 03:20:53;;;;;;;1.40;0.97;;;9.20;66.70;;;;;;5068996;28;20210;-40
2022/04/18 03:23:21;;;;;;;1.37;1.10;;;9.20;66.70;;;;;;5064010;28;20207;-41
2022/04/18 03:26:04;;;;;;;1.27;1.00;;;9.20;66.80;;;;;;5060564;28;20193;-42
2022/04/18 03:28:43;;;;;;;2.53;1.20;;;9.20;67.50;;;;;;5066762;28;20571;-41
2022/04/18 03:31:12;;;;;;;2.30;1.00;;;9.20;66.90;;;;;;5065607;28;20298;-42
2022/04/18 03:33:39;;;;;;;1.10;1.10;;;9.20;67.10;;;;;;5058979;28;20196;-42
2022/04/18 03:41:49;;;;;;;1.20;1.10;;;9.10;67.40;;;;;;5045567;28;20204;-43
2022/04/18 03:44:18;;;;;;;1.60;1.00;;;9.10;67.60;;;;;;5061169;28;20680;-40
2022/04/18 03:46:46;;;;;;;1.00;1.00;;;9.00;67.70;;;;;;5068754;28;20618;-46
2022/04/18 03:49:13;;;;;;;1.10;1.00;;;9.00;67.80;;;;;;5067859;28;20200;-47
2022/04/18 03:51:46;;;;;;;1.30;1.20;;;9.00;67.90;;;;;;5069226;28;20575;-47
2022/04/18 03:54:14;;;;;;;1.30;1.20;;;9.00;68.20;;;;;;5068132;28;20261;-43
2022/04/18 03:56:42;;;;;;;1.27;1.10;;;9.00;68.30;;;;;;5069010;28;20307;-43
2022/04/18 03:59:09;;;;;;;1.17;1.10;;;9.00;68.60;;;;;;5067154;28;20566;-43
2022/04/18 04:01:58;;;;;;;1.43;1.10;;;9.00;68.70;;;;;;5059987;28;20207;-46
2022/04/18 04:04:28;;;;;;;1.20;1.10;;;9.00;68.80;;;;;;5064924;28;20212;-40
2022/04/18 04:07:00;;;;;;;1.70;1.00;;;9.10;68.90;;;;;;5056160;28;20246;-41
2022/04/18 04:09:27;;;;;;;0.97;0.97;;;9.10;69.00;;;;;;5068751;28;20237;-38
2022/04/18 04:11:54;;;;;;;1.40;1.00;;;9.10;69.10;;;;;;5065611;28;20201;-43
2022/04/18 04:14:22;;;;;;;1.03;0.93;;;9.10;69.20;;;;;;5061048;28;20203;-39
2022/04/18 04:16:50;;;;;;;1.47;1.00;;;9.10;69.20;;;;;;5068055;28;20660;-41
2022/04/18 04:19:19;;;;;;;0.80;0.80;;;9.10;69.40;;;;;;5067120;28;20207;-41
2022/04/18 04:21:48;;;;;;;0.80;0.80;;;9.00;69.50;;;;;;5069463;28;20281;-40
2022/04/18 04:24:15;;;;;;;1.37;0.80;;;9.00;69.80;;;;;;5058632;28;20203;-39
2022/04/18 04:26:45;;;;;;;1.07;0.97;;;9.00;70.00;;;;;;5056011;28;20657;-38
2022/04/18 04:29:15;;;;;;;0.80;0.80;;;9.00;70.20;;;;;;5063133;28;20303;-42
2022/04/18 04:31:56;;;;;;;2.97;1.20;;;9.00;70.40;;;;;;5060920;28;20235;-39
2022/04/18 04:34:26;;;;;;;1.60;1.13;;;9.00;70.70;;;;;;5062910;28;20214;-39
2022/04/18 04:37:16;;;;;;;1.20;1.10;;;9.10;70.90;;;;;;5054444;28;20699;-39
2022/04/18 04:39:47;;;;;;;0.80;0.80;;;9.10;70.90;;;;;;5068369;28;20215;-41
2022/04/18 04:42:17;;;;;;;1.03;1.00;;;9.10;71.00;;;;;;5056200;28;20193;-39
2022/04/18 04:44:45;;;;;;;1.60;1.10;;;9.10;71.20;;;;;;5067698;28;20562;-40
2022/04/18 04:47:19;;;;;;;1.17;1.07;;;9.10;71.50;;;;;;5056923;28;20326;-44
2022/04/18 04:49:48;;;;;;;1.17;1.03;;;9.20;71.60;;;;;;5064989;28;20231;-39
2022/04/18 04:52:21;;;;;;;1.50;1.17;;;9.20;71.80;;;;;;5069018;28;20206;-39
2022/04/18 04:54:50;;;;;;;1.40;1.03;;;9.20;72.10;;;;;;5064154;28;20232;-39
2022/04/18 04:57:22;;;;;;;1.03;1.03;;;9.20;72.20;;;;;;5068444;28;20224;-39
2022/04/18 05:00:09;;;;;;;2.40;1.20;;;9.20;72.40;;;;;;5065706;28;20304;-42
2022/04/18 05:02:57;;;;;;;1.10;1.10;;;9.20;72.60;;;;;;5062713;28;20214;-39
2022/04/18 05:05:26;;;;;;;1.00;1.00;;;9.20;73.00;;;;;;5065574;28;20207;-44
2022/04/18 05:07:53;;;;;;;1.40;1.30;;;9.30;73.10;;;;;;5065697;28;20612;-44
2022/04/18 05:10:23;;;;;;;1.37;1.20;;;9.30;73.50;;;;;;5068852;28;20536;-42
2022/04/18 05:12:50;;;;;;;1.33;1.10;;;9.30;73.70;;;;;;5063753;28;20290;-41
2022/04/18 05:15:19;;;;;;;1.20;1.10;;;9.30;73.80;;;;;;5065367;28;20311;-40
2022/04/18 05:18:24;;;;;;;2.40;1.00;;;9.30;73.90;;;;;;5049795;28;20338;-40
2022/04/18 05:20:53;;;;;;;2.80;1.20;;;9.30;74.20;;;;;;5060224;28;20240;-45
2022/04/18 05:23:21;;;;;;;1.63;0.90;;;9.40;74.80;;;;;;5092966;28;20197;-40
2022/04/18 05:25:51;;;;;;;1.07;0.90;;;9.40;75.10;;;;;;5068176;28;20564;-42
2022/04/18 05:28:19;;;;;;;1.10;1.10;;;9.40;75.40;;;;;;5055807;28;20304;-40
2022/04/18 05:30:51;;;;;;;2.60;1.40;;;9.40;75.70;;;;;;5098356;28;20217;-47
2022/04/18 05:33:21;;;;;;;1.80;1.00;;;9.50;76.80;;;;;;5064560;28;20196;-44
2022/04/18 05:36:08;;;;;;;3.13;1.27;;;9.50;77.10;;;;;;5064115;28;20313;-42
2022/04/18 05:38:37;;;;;;;1.00;1.00;;;9.60;77.40;;;;;;5062426;28;20209;-45
2022/04/18 05:41:13;;;;;;;1.27;1.10;;;9.60;77.50;;;;;;5096762;28;20847;-43
2022/04/18 05:43:43;;;;;;;1.30;1.27;;;9.60;77.90;;;;;;5071587;28;20209;-43
2022/04/18 05:46:11;;;;;;;2.20;1.40;;;9.70;78.50;;;;;;5071105;28;20195;-45
2022/04/18 05:48:39;;;;;;;1.50;1.40;;;9.70;79.10;;;;;;5068967;28;20215;-45
2022/04/18 05:51:06;;;;;;;1.77;1.33;;;9.80;80.00;;;;;;5069829;28;20200;-40
2022/04/18 05:53:35;;;;;;;1.30;1.20;;;9.80;80.50;;;;;;5092191;28;20204;-48
2022/04/18 05:56:05;;;;;;;1.90;1.40;;;9.80;80.40;;;;;;5070731;28;20738;-40
2022/04/18 05:58:40;;;;;;;2.53;1.70;;;9.90;81.50;;;;;;5058525;28;20220;-43
2022/04/18 06:01:16;;;;;;;2.87;1.30;;;9.90;82.20;;;;;;5070702;28;20208;-39
2022/04/18 06:03:43;;;;;;;1.63;1.30;;;9.90;82.60;;;;;;5069309;28;20567;-40
2022/04/18 06:06:11;;;;;;;1.20;1.10;;;10.00;81.90;;;;;;5070402;28;20667;-48
2022/04/18 06:08:39;;;;;;;3.50;1.40;;;10.00;82.10;;;;;;5068221;28;20669;-43
2022/04/18 06:11:10;;;;;;;2.20;1.20;;;10.10;82.70;;;;;;5064008;28;20680;-43
2022/04/18 06:13:43;;;;;;;1.00;1.00;;;10.10;83.20;;;;;;5068862;28;20208;-49
2022/04/18 06:16:12;;;;;;;1.20;1.20;;;10.10;83.30;;;;;;5068403;28;20227;-41
2022/04/18 06:18:41;;;;;;;1.17;1.17;;;10.20;83.90;;;;;;5069575;28;20228;-42
2022/04/18 06:21:12;;;;;;;1.40;1.30;;;10.20;84.40;;;;;;5091532;28;20751;-42
2022/04/18 06:23:43;;;;;;;2.03;1.30;;;10.20;84.70;;;;;;5064685;28;20215;-45
2022/04/18 06:26:36;;;;;;;1.37;1.10;;;10.30;85.10;;;;;;5092675;28;20297;-42
2022/04/18 06:29:06;;;;;;;1.77;1.20;;;10.30;85.00;;;;;;5063970;28;20202;-40
2022/04/18 06:31:34;;;;;;;1.67;1.20;;;10.40;85.30;;;;;;5063103;28;20229;-45
2022/04/18 06:34:04;;;;;;;1.60;1.27;;;10.40;85.40;;;;;;5056637;28;20194;-46
2022/04/18 06:36:33;;;;;;;1.17;1.07;;;10.50;86.10;;;;;;5056477;28;20223;-42
2022/04/18 06:39:18;;;;;;;2.03;1.37;;;10.60;85.40;;;;;;5060473;28;20302;-49
2022/04/18 06:41:47;;;;;;;1.20;1.10;;;10.60;85.90;;;;;;5067371;28;20235;-42
2022/04/18 06:44:20;;;;;;;0.93;0.93;;;10.60;85.80;;;;;;5061494;28;20215;-43
2022/04/18 06:46:53;;;;;;;4.13;1.50;;;10.70;85.90;;;;;;5070111;28;20201;-44
2022/04/18 06:49:43;;;;;;;5.30;1.70;;;10.80;85.90;;;;;;5067766;28;20638;-43
2022/04/18 06:52:39;;;;;;;1.80;1.40;;;10.80;85.80;;;;;;5061265;28;20209;-41
2022/04/18 06:55:26;;;;;;;4.97;2.00;;;10.90;85.60;;;;;;5060392;28;20208;-41
2022/04/18 06:57:52;;;;;;;2.63;1.87;;;11.00;85.60;;;;;;5067871;28;20248;-41
2022/04/18 07:00:20;;;;;;;2.13;1.23;;;11.10;85.50;;;;;;5068687;28;20209;-38
2022/04/18 07:02:50;;;;;;;1.93;1.47;;;11.10;86.00;;;;;;5063692;28;20234;-42
2022/04/18 07:05:18;;;;;;;1.77;1.20;;;11.20;85.10;;;;;;5053468;28;20621;-41
2022/04/18 07:07:45;;;;;;;1.30;1.20;;;11.30;85.00;;;;;;5053970;28;20198;-46
2022/04/18 07:10:12;;;;;;;4.17;1.93;;;11.30;84.90;;;;;;5070267;28;20678;-42
2022/04/18 07:12:40;;;;;;;4.47;2.00;;;11.40;84.90;;;;;;5069547;28;20867;-46
2022/04/18 07:15:08;;;;;;;1.87;1.53;;;11.50;84.60;;;;;;5070058;28;20201;-42
2022/04/18 07:17:37;;;;;;;1.63;1.50;;;11.50;84.40;;;;;;5068448;28;20777;-46
2022/04/18 07:20:09;;;;;;;1.43;1.33;;;11.60;84.30;;;;;;5068436;28;20210;-42
2022/04/18 07:22:39;;;;;;;1.67;1.30;;;11.60;84.00;;;;;;5069558;28;20307;-42
2022/04/18 07:25:08;;;;;;;1.50;1.40;;;11.70;83.90;;;;;;5053784;28;20684;-40
2022/04/18 07:27:40;;;;;;;3.83;2.03;;;11.80;83.60;;;;;;5063481;28;20266;-46
2022/04/18 07:30:09;;;;;;;1.67;1.57;;;11.80;83.10;;;;;;5069708;28;20200;-44
2022/04/18 07:32:42;;;;;;;2.47;1.73;;;11.90;82.90;;;;;;5063237;28;20217;-41
2022/04/18 07:35:14;;;;;;;2.83;1.73;;;11.90;82.60;;;;;;5066380;28;20209;-43
2022/04/18 07:40:48;;;;;;;2.30;1.87;;;12.10;82.20;;;;;;5055580;28;20194;-40
2022/04/18 07:43:23;;;;;;;4.43;2.17;;;12.10;82.00;;;;;;5052436;28;20197;-42
2022/04/18 07:45:50;;;;;;;3.60;1.93;;;12.20;81.40;;;;;;5069239;28;20638;-43
2022/04/18 07:48:19;;;;;;;1.50;1.40;;;12.20;80.90;;;;;;5066476;28;20204;-40
2022/04/18 07:53:33;;;;;;;3.07;1.70;;;12.30;79.70;;;;;;5066465;28;20197;-43
2022/04/18 07:56:01;;;;;;;3.40;1.73;;;12.40;79.60;;;;;;5068969;28;20212;-42
2022/04/18 07:58:36;;;;;;;1.40;1.30;;;12.50;79.30;;;;;;5066642;28;20262;-39
2022/04/18 08:01:07;;;;;;;2.03;1.33;;;12.50;79.10;;;;;;5066797;28;20283;-43
2022/04/18 08:03:35;;;;;;;1.20;1.03;;;12.60;78.50;;;;;;5066279;28;20199;-41
2022/04/18 08:06:03;;;;;;;1.57;1.47;;;12.70;78.00;;;;;;5066273;28;20209;-39
2022/04/18 08:08:41;;;;;;;5.27;2.07;;;12.80;77.80;;;;;;5053276;28;20802;-43
2022/04/18 08:11:11;;;;;;;2.83;1.80;;;12.90;77.40;;;;;;5062025;28;20213;-43
2022/04/18 08:13:42;;;;;;;1.43;1.33;;;12.90;76.60;;;;;;5069219;28;20213;-40
2022/04/18 08:16:28;;;;;;;2.20;1.70;;;13.00;76.60;;;;;;5066562;28;20239;-43
2022/04/18 08:19:02;;;;;;;1.70;1.60;;;13.10;75.90;;;;;;5064929;28;20210;-40
2022/04/18 08:21:29;;;;;;;4.07;2.40;;;13.20;75.70;;;;;;5091546;28;20258;-39
2022/04/18 08:23:56;;;;;;;2.10;1.90;;;13.20;74.90;;;;;;5061187;28;20294;-40
2022/04/18 08:26:36;;;;;;;2.43;2.03;;;13.20;74.70;;;;;;5064184;28;20605;-45
2022/04/18 08:29:21;;;;;;;4.80;2.20;;;13.30;74.70;;;;;;5057169;28;20214;-43
2022/04/18 08:32:16;;;;;;;3.47;2.00;;;13.30;74.50;;;;;;5068420;28;20208;-46
2022/04/18 08:34:44;;;;;;;3.17;2.40;;;13.30;74.10;;;;;;5060393;28;20205;-40
2022/04/18 08:37:19;;;;;;;2.90;2.20;;;13.40;74.20;;;;;;5068639;28;20290;-45
2022/04/18 08:40:21;;;;;;;3.07;1.90;;;13.40;74.30;;;;;;5052568;28;20763;-43
2022/04/18 08:42:55;;;;;;;2.30;1.80;;;13.50;74.40;;;;;;5094319;28;20209;-43
2022/04/18 08:45:25;;;;;;;2.10;2.00;;;13.60;74.40;;;;;;5068841;28;20241;-39
2022/04/18 08:53:27;;;;;;;3.87;1.67;;;13.80;74.60;;;;;;5066174;28;20193;-40
2022/04/18 08:55:55;;;;;;;3.93;2.30;;;13.90;74.30;;;;;;5068516;28;20244;-41
2022/04/18 08:58:33;;;;;;;2.87;1.67;;;14.00;73.50;;;;;;5066501;28;20243;-41
2022/04/18 09:01:05;;;;;;;1.60;1.50;;;14.00;73.30;;;;;;5066419;28;20325;-40
2022/04/18 09:03:52;;;;;;;1.97;1.77;;;14.20;73.20;;;;;;5059979;28;20279;-40
2022/04/18 09:06:25;;;;;;;1.50;1.40;;;14.30;72.70;;;;;;5071425;28;20332;-39
2022/04/18 09:09:05;;;;;;;1.67;1.50;;;14.30;72.40;;;;;;5071043;28;20205;-44
2022/04/18 09:11:36;;;;;;;1.60;1.40;;;14.40;72.00;;;;;;5086129;28;20749;-39
2022/04/18 09:14:09;;;;;;;1.40;1.30;;;14.50;71.50;;;;;;5062879;28;20202;-40
2022/04/18 09:16:39;;;;;;;1.73;1.63;;;14.60;70.90;;;;;;5070861;28;20235;-39
2022/04/18 09:19:11;;;;;;;2.20;1.60;;;14.70;69.60;;;;;;5070205;28;20289;-38
2022/04/18 09:21:43;;;;;;;1.47;1.37;;;14.80;69.20;;;;;;5071744;28;20218;-40
2022/04/18 09:24:31;;;;;;;2.37;1.90;;;14.80;68.70;;;;;;5062613;28;20219;-42
2022/04/18 09:27:07;;;;;;;2.23;1.80;;;14.90;68.10;;;;;;5069434;28;20213;-39
2022/04/18 09:29:39;;;;;;;1.80;1.70;;;15.00;67.50;;;;;;5069368;28;20682;-40
2022/04/18 09:32:12;;;;;;;1.90;1.73;;;15.00;67.20;;;;;;5071527;28;20208;-41
2022/04/18 09:35:05;;;;;;;1.43;1.33;;;15.10;66.50;;;;;;5065324;28;20199;-38
2022/04/18 09:37:38;;;;;;;1.90;1.80;;;15.20;66.00;;;;;;5068002;28;20234;-39
2022/04/18 09:40:07;;;;;;;1.80;1.70;;;15.30;65.60;;;;;;5070877;28;20303;-45
2022/04/18 09:42:34;;;;;;;1.63;1.50;;;15.30;65.20;;;;;;5085443;28;20206;-40
2022/04/18 09:45:11;;;;;;;3.60;2.00;;;15.40;64.70;;;;;;5071665;28;20238;-39
2022/04/18 09:47:43;;;;;;;2.60;2.20;;;15.40;63.90;;;;;;5070827;28;20261;-39
2022/04/18 09:50:58;;;;;;;1.53;1.43;;;15.40;63.50;;;;;;5070094;28;20275;-39
2022/04/18 09:53:17;;;;;;;1.57;1.47;;;15.50;63.60;;;;;;5071291;28;20249;-40
2022/04/18 09:55:46;;;;;;;1.47;1.37;;;15.60;63.00;;;;;;5071264;28;20202;-40
2022/04/18 09:58:14;;;;;;;1.20;1.20;;;15.70;63.00;;;;;;5067645;28;20682;-40
2022/04/18 10:00:41;;;;;;;1.30;1.23;;;15.80;62.80;;;;;;5070728;28;20728;-40
2022/04/18 10:03:10;;;;;;;2.03;1.77;;;15.90;62.50;;;;;;5067257;28;20211;-40
2022/04/18 10:05:38;;;;;;;1.87;1.67;;;16.00;61.70;;;;;;5070048;28;20229;-40
2022/04/18 10:08:06;;;;;;;2.23;1.90;;;16.10;61.40;;;;;;5069935;28;20590;-39
2022/04/18 10:10:34;;;;;;;2.40;2.13;;;16.10;60.40;;;;;;5070297;28;20201;-40
2022/04/18 10:13:01;;;;;;;2.20;2.00;;;16.10;59.60;;;;;;5065205;28;20284;-39
2022/04/18 10:15:28;;;;;;;1.30;1.20;;;16.20;59.60;;;;;;5071614;28;20771;-40
2022/04/18 10:17:57;;;;;;;1.40;1.30;;;16.20;59.10;;;;;;5065904;28;20236;-40
2022/04/18 10:20:45;;;;;;;1.30;1.20;;;16.30;58.80;;;;;;5066707;28;20200;-39
2022/04/18 10:23:31;;;;;;;1.80;1.70;;;16.40;58.70;;;;;;5066904;28;20199;-42
2022/04/18 10:26:36;;;;;;;3.63;1.80;;;16.50;58.10;;;;;;5062920;28;20194;-40
2022/04/18 10:29:08;;;;;;;1.80;1.70;;;16.50;57.50;;;;;;5064534;28;20209;-40
2022/04/18 10:31:38;;;;;;;2.20;2.00;;;16.50;56.70;;;;;;5064434;28;20207;-45
2022/04/18 10:34:06;;;;;;;2.00;1.83;;;16.60;56.40;;;;;;5060354;28;20193;-40
2022/04/18 10:36:35;;;;;;;2.40;2.20;;;16.50;56.10;;;;;;5066312;28;20204;-43
2022/04/18 10:39:05;;;;;;;4.33;2.50;;;16.60;55.90;;;;;;5066472;28;20213;-43
2022/04/18 10:41:33;;;;;;;2.23;2.03;;;16.60;54.80;;;;;;5065143;28;20200;-39
2022/04/18 10:44:02;;;;;;;3.40;2.40;;;16.70;54.80;;;;;;5060490;28;20196;-42
2022/04/18 10:46:29;;;;;;;2.20;2.00;;;16.70;54.70;;;;;;5068979;28;20253;-41
2022/04/18 10:48:57;;;;;;;1.70;1.60;;;16.80;54.60;;;;;;5070480;28;20189;-40
2022/04/18 10:51:30;;;;;;;2.83;2.30;;;16.90;54.60;;;;;;5068259;28;20197;-40
2022/04/18 10:54:16;;;;;;;4.07;3.10;;;16.90;54.40;;;;;;5057964;28;20228;-44
2022/04/18 10:56:54;;;;;;;3.27;2.70;;;16.90;54.10;;;;;;5067666;28;20250;-41
2022/04/18 10:59:23;;;;;;;2.10;1.80;;;16.90;53.70;;;;;;5068415;28;20210;-41
2022/04/18 11:01:51;;;;;;;1.93;1.70;;;16.90;53.90;;;;;;5066354;28;20221;-38
2022/04/18 11:04:19;;;;;;;2.23;1.87;;;17.00;53.60;;;;;;5066127;28;20208;-40
2022/04/18 11:06:52;;;;;;;1.80;1.70;;;17.00;54.20;;;;;;5065740;28;20189;-40
2022/04/18 11:09:23;;;;;;;3.73;2.43;;;17.00;53.40;;;;;;5066015;28;20294;-40
2022/04/18 11:12:08;;;;;;;3.00;2.20;;;17.00;52.50;;;;;;5066316;28;20276;-41
2022/04/18 11:14:51;;;;;;;1.90;1.80;;;16.90;52.40;;;;;;5062214;28;20252;-41
2022/04/18 11:17:30;;;;;;;2.37;2.17;;;16.90;52.00;;;;;;5065318;28;20247;-40
2022/04/18 11:19:58;;;;;;;2.37;2.17;;;16.90;51.00;;;;;;5065652;28;20212;-40
2022/04/18 11:22:26;;;;;;;1.83;1.73;;;16.80;50.40;;;;;;5062647;28;20193;-40
2022/04/18 11:25:11;;;;;;;2.50;1.70;;;16.80;50.20;;;;;;5092220;28;20603;-44
2022/04/18 11:27:39;;;;;;;3.67;2.70;;;16.90;50.30;;;;;;5064897;28;20215;-43
2022/04/18 11:30:13;;;;;;;3.40;2.67;;;17.00;49.70;;;;;;5064546;28;20190;-40
2022/04/18 11:32:44;;;;;;;4.27;3.00;;;17.00;50.30;;;;;;5057044;28;20653;-42
2022/04/18 11:35:13;;;;;;;5.30;3.63;;;16.90;50.10;;;;;;5056484;28;20200;-43
2022/04/18 11:37:43;;;;;;;4.10;3.07;;;16.90;49.80;;;;;;5085390;28;20343;-43
2022/04/18 11:40:13;;;;;;;2.77;2.17;;;16.80;50.10;;;;;;5056331;28;20197;-46
2022/04/18 11:42:42;;;;;;;2.40;2.20;;;16.90;50.00;;;;;;5064862;28;20227;-39
2022/04/18 11:45:11;;;;;;;3.93;2.50;;;16.90;49.10;;;;;;5070304;28;20281;-42
2022/04/18 11:47:40;;;;;;;3.77;2.33;;;16.90;49.00;;;;;;5069551;28;20205;-41
2022/04/18 11:50:09;;;;;;;3.00;2.67;;;17.00;48.50;;;;;;5067195;28;20696;-45
2022/04/18 11:52:38;;;;;;;2.50;2.40;;;17.00;48.20;;;;;;5068154;28;20683;-45
2022/04/18 11:55:07;;;;;;;3.23;2.93;;;17.00;47.20;;;;;;5068082;28;20197;-44
2022/04/18 11:57:37;;;;;;;3.53;3.20;;;17.00;46.90;;;;;;5069413;28;20197;-42
2022/04/18 12:00:07;;;;;;;4.33;3.40;;;17.00;46.40;;;;;;5068394;28;20190;-45
2022/04/18 12:08:12;;;;;;;8.20;3.93;;;17.10;45.70;;;;;;5057326;28;20246;-45
2022/04/18 12:10:41;;;;;;;4.00;3.27;;;17.00;45.20;;;;;;5068369;28;20189;-41
2022/04/18 12:13:11;;;;;;;3.20;2.80;;;17.00;45.60;;;;;;5065528;28;20314;-46
2022/04/18 12:15:40;;;;;;;3.53;3.23;;;17.00;45.80;;;;;;5066915;28;20386;-43
2022/04/18 12:18:12;;;;;;;4.73;3.50;;;17.10;45.60;;;;;;5064549;28;20243;-40
2022/04/18 12:20:44;;;;;;;4.53;3.47;;;17.10;45.60;;;;;;5064502;28;20196;-39
2022/04/18 12:23:16;;;;;;;3.47;3.17;;;17.00;45.10;;;;;;5066029;28;20620;-41
2022/04/18 12:25:45;;;;;;;3.27;2.90;;;17.00;45.40;;;;;;5063115;28;20198;-44
2022/04/18 12:28:15;;;;;;;3.93;3.60;;;17.10;45.50;;;;;;5070014;28;20215;-41
2022/04/18 12:30:43;;;;;;;5.63;3.30;;;17.00;45.90;;;;;;5061444;28;20204;-46
2022/04/18 12:33:14;;;;;;;3.77;3.10;;;17.00;46.40;;;;;;5055461;28;20727;-42
2022/04/18 12:35:42;;;;;;;5.37;3.27;;;17.00;46.70;;;;;;5059858;28;20198;-42
2022/04/18 12:38:11;;;;;;;5.43;4.00;;;17.00;46.70;;;;;;5063921;28;20225;-41
2022/04/18 12:40:40;;;;;;;5.93;3.67;;;16.90;46.80;;;;;;5067242;28;20248;-43
2022/04/18 12:43:09;;;;;;;4.07;3.13;;;17.00;47.40;;;;;;5055148;28;20216;-41
2022/04/18 12:45:49;;;;;;;2.53;2.10;;;17.00;47.70;;;;;;5061660;28;20193;-40
2022/04/18 12:48:22;;;;;;;2.50;2.27;;;17.10;48.00;;;;;;5068917;28;20544;-40
2022/04/18 12:50:49;;;;;;;3.17;2.50;;;17.20;47.90;;;;;;5062985;28;20204;-40
2022/04/18 12:53:16;;;;;;;3.07;2.40;;;17.20;47.80;;;;;;5072514;28;20243;-39
2022/04/18 12:55:44;;;;;;;6.13;3.80;;;17.20;47.40;;;;;;5073656;28;20208;-40
2022/04/18 12:58:19;;;;;;;4.33;3.07;;;17.30;46.80;;;;;;5072518;28;20220;-46
2022/04/18 13:00:50;;;;;;;5.20;3.77;;;17.30;46.90;;;;;;5073286;28;20652;-42
2022/04/18 13:03:20;;;;;;;7.50;4.00;;;17.30;46.50;;;;;;5072389;28;20235;-40
2022/04/18 13:05:49;;;;;;;5.30;4.10;;;17.20;45.20;;;;;;5073372;28;20197;-43
2022/04/18 13:08:18;;;;;;;6.50;4.43;;;17.10;45.20;;;;;;5073422;28;20193;-40
2022/04/18 13:10:46;;;;;;;5.90;3.90;;;17.10;44.90;;;;;;5073400;28;20556;-40
2022/04/18 13:13:14;;;;;;;6.93;4.17;;;17.00;44.90;;;;;;5072175;28;20213;-39
2022/04/18 13:15:43;;;;;;;5.70;3.83;;;17.00;45.10;;;;;;5072842;28;20222;-43
2022/04/18 13:18:13;;;;;;;4.90;3.73;;;17.00;45.00;;;;;;5072016;28;20291;-41
2022/04/18 13:20:41;;;;;;;8.23;3.93;;;17.00;45.00;;;;;;5072516;28;20197;-43
2022/04/18 13:23:09;;;;;;;4.57;3.50;;;16.90;44.60;;;;;;5073175;28;20205;-42
2022/04/18 13:25:36;;;;;;;5.30;3.60;;;16.90;45.00;;;;;;5073271;28;20197;-40
2022/04/18 13:28:07;;;;;;;3.80;3.40;;;16.90;44.60;;;;;;5072313;28;20201;-39
2022/04/18 13:30:36;;;;;;;3.37;3.00;;;16.80;44.30;;;;;;5073173;28;20199;-42
2022/04/18 13:33:05;;;;;;;3.10;2.60;;;16.80;44.30;;;;;;5071746;28;20286;-39
2022/04/18 13:36:30;;;;;;;4.07;3.47;;;16.80;44.20;;;;;;5071892;28;20577;-43
2022/04/18 13:38:27;;;;;;;6.07;3.80;;;16.80;43.70;;;;;;5072662;28;20711;-41
2022/04/18 13:40:55;;;;;;;4.23;3.33;;;16.70;43.30;;;;;;5072774;28;20691;-41
2022/04/18 13:43:22;;;;;;;5.10;2.70;;;16.60;43.30;;;;;;5059462;28;20673;-40
2022/04/18 13:45:49;;;;;;;3.90;3.43;;;16.60;43.70;;;;;;5071375;28;20262;-40